PHTO Airport (Hilo Intl) Information

FAA: ITO - ICAO: PHTO

PHTO Airport Location

State Hawaii
County Hawaii
City Hilo
PHTO Airport is 2 miles east of Hilo, HI.
Latitude 19-43-12.9468N
Longitude 155-02-54.4925W
Elevation 37ft

PHTO Airport METARs

METAR PHTO 200353Z 04004KT 10SM FEW034 BKN045 24/18 A3003 RMK AO2 SLP169 T02440178
Altimeter 30.03"
Temperature 24.4°C (75.9°F)
Wind 40° at 4KT
Clouds few at 3,400ft broken at 4,500ft
Visibility 10.0mi
Time observed: 2021-10-20T03:53:00Z

PHTO Airport Details

Status Operational
Activation April 1938
Ownership Public
Usage Public
Chart HAWAIIAN ISLANDS
ATC on-site Yes
Beacon schedule sunset-sunrise
Beacon color clear green

PHTO Airport Contacts

Owner STATE OF HAWAII ARPT DIV DOT
Owner address HONOLULU INTL ARPT, HONOLULU, HI 96819
Owner phone 808-838-8600
Manager BEN MAGNUSON
Manager address N/A, MCGRATH, AK 99627
Manager phone 907-524-3640

PHTO Airport (Hilo Intl) Radio Frequencies

PHTO (Airport) Radio Frequencies

UNICOM N/A
Common traffic advisory frequency (CTAF) 118.1